createdAt,value
2023-05-15T00:02:11.653Z,19.67
2023-05-15T00:04:39.001Z,19.64
2023-05-15T00:07:06.000Z,19.60
2023-05-15T00:09:32.995Z,19.57
2023-05-15T00:12:00.450Z,19.54
2023-05-15T00:14:27.250Z,19.50
2023-05-15T00:16:54.084Z,19.47
2023-05-15T00:19:20.976Z,19.44
2023-05-15T00:21:47.907Z,19.41
2023-05-15T00:24:14.840Z,19.38
2023-05-15T00:26:41.842Z,19.36
2023-05-15T00:29:09.785Z,19.33
2023-05-15T00:31:36.832Z,19.29
2023-05-15T00:34:03.767Z,19.27
2023-05-15T00:36:30.982Z,19.25
2023-05-15T00:38:58.034Z,19.22
2023-05-15T00:41:25.205Z,19.20
2023-05-15T00:43:52.399Z,19.18
2023-05-15T00:46:20.191Z,19.15
2023-05-15T00:48:47.172Z,19.12
2023-05-15T00:51:14.124Z,19.10
2023-05-15T00:53:40.970Z,19.08
2023-05-15T00:56:08.014Z,19.05
2023-05-15T00:58:34.996Z,19.03
2023-05-15T01:01:01.984Z,19.01
2023-05-15T01:03:29.196Z,18.99
2023-05-15T01:05:56.116Z,18.96
2023-05-15T01:08:28.182Z,18.94
2023-05-15T01:10:55.001Z,18.91
2023-05-15T01:13:22.662Z,18.89
2023-05-15T01:15:49.986Z,18.87
2023-05-15T01:18:17.192Z,18.86
2023-05-15T01:20:55.801Z,18.84
2023-05-15T01:23:51.090Z,18.81
2023-05-15T01:26:36.834Z,18.79
2023-05-15T01:29:15.051Z,18.76
2023-05-15T01:31:42.436Z,18.73
2023-05-15T01:34:10.202Z,18.70
2023-05-15T01:36:44.323Z,18.68
2023-05-15T01:39:11.262Z,18.66
2023-05-15T01:42:07.817Z,18.64
2023-05-15T01:44:37.069Z,18.61
2023-05-15T01:47:10.455Z,18.59
2023-05-15T01:49:37.825Z,18.58
2023-05-15T01:52:20.756Z,18.57
2023-05-15T01:54:47.692Z,18.56
2023-05-15T01:57:14.641Z,18.55
2023-05-15T01:59:42.524Z,18.54
2023-05-15T02:02:09.524Z,18.53
2023-05-15T02:04:37.549Z,18.51
2023-05-15T02:07:05.128Z,18.48
2023-05-15T02:09:32.320Z,18.46
2023-05-15T02:12:01.389Z,18.43
2023-05-15T02:14:31.668Z,18.43
2023-05-15T02:16:58.653Z,18.41
2023-05-15T02:19:27.538Z,18.39
2023-05-15T02:21:54.692Z,18.37
2023-05-15T02:24:21.652Z,18.36
2023-05-15T02:27:05.309Z,18.35
2023-05-15T02:30:03.664Z,18.35
2023-05-15T02:32:58.776Z,18.36
2023-05-15T02:35:39.415Z,18.37
2023-05-15T02:38:09.338Z,18.38
2023-05-15T02:40:36.838Z,18.41
2023-05-15T02:43:05.985Z,18.43
2023-05-15T02:45:32.896Z,18.45
2023-05-15T02:47:59.836Z,18.47
2023-05-15T02:50:26.944Z,18.50
2023-05-15T02:53:05.354Z,18.53
2023-05-15T02:55:32.321Z,18.53
2023-05-15T02:57:59.282Z,18.53
2023-05-15T03:00:26.412Z,18.53
2023-05-15T03:02:53.479Z,18.51
2023-05-15T03:05:21.008Z,18.51
2023-05-15T03:07:48.085Z,18.51
2023-05-15T03:10:15.035Z,18.52
2023-05-15T03:12:41.945Z,18.51
2023-05-15T03:15:09.452Z,18.53
2023-05-15T03:17:36.464Z,18.51
2023-05-15T03:20:05.259Z,18.51
2023-05-15T03:22:32.386Z,18.53
2023-05-15T03:24:59.284Z,18.55
2023-05-15T03:27:26.664Z,18.57
2023-05-15T03:29:53.610Z,18.58
2023-05-15T03:32:21.071Z,18.60
2023-05-15T03:34:48.029Z,18.62
2023-05-15T03:37:14.905Z,18.65
2023-05-15T03:39:41.933Z,18.68
2023-05-15T03:42:08.880Z,18.70
2023-05-15T03:44:35.785Z,18.72
2023-05-15T03:47:02.719Z,18.73
2023-05-15T03:49:29.730Z,18.75
2023-05-15T03:51:57.929Z,18.78
2023-05-15T03:54:24.874Z,18.82
2023-05-15T03:56:53.090Z,18.86
2023-05-15T03:59:19.989Z,18.91
2023-05-15T04:02:02.922Z,18.93
2023-05-15T04:04:31.105Z,18.94
2023-05-15T04:06:57.989Z,18.97
2023-05-15T04:09:24.901Z,19.03
2023-05-15T04:11:51.846Z,19.08
2023-05-15T04:14:18.807Z,19.12
2023-05-15T04:16:45.887Z,19.17
2023-05-15T04:19:12.974Z,19.22
2023-05-15T04:21:39.970Z,19.27
2023-05-15T04:24:07.657Z,19.34
2023-05-15T04:26:34.738Z,19.39
2023-05-15T04:29:04.299Z,19.44
2023-05-15T04:31:31.983Z,19.48
2023-05-15T04:33:58.942Z,19.53
2023-05-15T04:36:25.796Z,19.60
2023-05-15T04:38:52.781Z,19.67
2023-05-15T04:41:19.662Z,19.72
2023-05-15T04:43:46.852Z,19.77
2023-05-15T04:46:13.793Z,19.83
2023-05-15T04:48:40.823Z,19.88
2023-05-15T04:51:08.008Z,19.93
2023-05-15T04:53:34.888Z,19.99
2023-05-15T04:56:01.787Z,20.05
2023-05-15T04:58:28.666Z,20.11
2023-05-15T05:00:55.633Z,20.17
2023-05-15T05:03:23.118Z,20.23
2023-05-15T05:05:50.131Z,20.29
2023-05-15T05:08:17.154Z,20.35
2023-05-15T05:10:44.208Z,20.40
2023-05-15T05:13:11.093Z,20.47
2023-05-15T05:15:38.277Z,20.52
2023-05-15T05:18:06.263Z,20.59
2023-05-15T05:20:33.235Z,20.65
2023-05-15T05:23:00.225Z,20.72
2023-05-15T05:25:27.229Z,20.78
2023-05-15T05:27:54.158Z,20.83
2023-05-15T05:30:22.481Z,20.87
2023-05-15T05:32:49.595Z,20.93
2023-05-15T05:35:16.598Z,20.98
2023-05-15T05:37:43.513Z,21.03
2023-05-15T05:40:11.036Z,21.09
2023-05-15T05:42:38.070Z,21.17
2023-05-15T05:45:06.782Z,21.27
2023-05-15T05:47:34.240Z,21.37
2023-05-15T05:50:01.148Z,21.41
2023-05-15T05:52:29.174Z,21.44
2023-05-15T05:54:56.124Z,21.48
2023-05-15T05:57:23.040Z,21.52
2023-05-15T05:59:50.087Z,21.57
2023-05-15T06:02:17.097Z,21.62
2023-05-15T06:04:44.197Z,21.67
2023-05-15T06:07:11.293Z,21.71
2023-05-15T06:09:38.177Z,21.75
2023-05-15T06:12:05.776Z,21.81
2023-05-15T06:14:32.760Z,21.88
2023-05-15T06:17:01.226Z,21.95
2023-05-15T06:19:29.271Z,22.02
2023-05-15T06:21:56.155Z,22.10
2023-05-15T06:24:23.248Z,22.18
2023-05-15T06:26:50.637Z,22.25
2023-05-15T06:29:19.343Z,22.34
2023-05-15T06:31:46.182Z,22.43
2023-05-15T06:34:13.156Z,22.52
2023-05-15T06:36:40.718Z,22.60
2023-05-15T06:39:10.825Z,22.69
2023-05-15T06:41:38.214Z,22.80
2023-05-15T06:44:05.217Z,22.91
2023-05-15T06:46:32.147Z,23.01
2023-05-15T06:48:59.064Z,23.10
2023-05-15T06:51:25.958Z,23.22
2023-05-15T06:53:52.871Z,23.35
2023-05-15T06:56:19.737Z,23.49
2023-05-15T06:58:46.578Z,23.69
2023-05-15T07:01:14.010Z,23.95
2023-05-15T07:03:43.109Z,24.21
2023-05-15T07:06:09.986Z,24.76
2023-05-15T07:08:36.936Z,25.27
2023-05-15T07:11:04.216Z,25.92
2023-05-15T07:13:31.106Z,26.87
2023-05-15T07:15:58.099Z,27.78
2023-05-15T07:18:24.940Z,28.48
2023-05-15T07:20:51.831Z,29.03
2023-05-15T07:23:18.726Z,29.66
2023-05-15T07:25:46.202Z,30.78
2023-05-15T07:28:13.201Z,32.52
2023-05-15T07:30:40.079Z,34.42
2023-05-15T07:33:07.142Z,35.79
2023-05-15T07:35:34.192Z,36.44
2023-05-15T07:38:01.545Z,37.04
2023-05-15T07:40:28.513Z,37.43
2023-05-15T07:42:55.391Z,38.14
2023-05-15T07:45:22.551Z,39.22
2023-05-15T07:47:49.794Z,40.09
2023-05-15T07:50:16.824Z,40.32
2023-05-15T07:52:44.205Z,40.10
2023-05-15T07:55:11.293Z,39.94
2023-05-15T07:57:38.429Z,39.32
2023-05-15T08:00:11.073Z,37.62
2023-05-15T08:02:41.821Z,35.79
2023-05-15T08:05:08.902Z,33.97
2023-05-15T08:07:36.153Z,32.71
2023-05-15T08:10:06.415Z,31.63
2023-05-15T08:12:33.528Z,30.90
2023-05-15T08:15:00.397Z,30.15
2023-05-15T08:17:27.283Z,29.46
2023-05-15T08:19:54.360Z,28.98
2023-05-15T08:22:21.304Z,28.62
2023-05-15T08:24:48.795Z,28.24
2023-05-15T08:27:15.600Z,27.94
2023-05-15T08:29:42.479Z,27.66
2023-05-15T08:32:09.600Z,27.31
2023-05-15T08:34:36.481Z,26.94
2023-05-15T08:37:04.378Z,26.68
2023-05-15T08:39:31.290Z,26.52
2023-05-15T08:42:11.520Z,26.41
2023-05-15T08:44:39.371Z,26.28
2023-05-15T08:47:06.577Z,26.14
2023-05-15T08:49:42.286Z,26.03
2023-05-15T08:52:09.335Z,25.95
2023-05-15T08:54:36.219Z,25.91
2023-05-15T08:57:03.161Z,25.87
2023-05-15T08:59:30.030Z,25.84
2023-05-15T09:01:57.338Z,25.79
2023-05-15T09:04:24.341Z,25.73
2023-05-15T09:06:51.323Z,25.68
2023-05-15T09:09:18.755Z,25.68
2023-05-15T09:11:46.535Z,25.68
2023-05-15T09:14:13.433Z,25.67
2023-05-15T09:16:40.370Z,25.68
2023-05-15T09:19:07.371Z,25.66
2023-05-15T09:21:34.463Z,25.66
2023-05-15T09:24:18.163Z,25.66
2023-05-15T09:26:46.166Z,25.62
2023-05-15T09:29:18.071Z,25.60
2023-05-15T09:31:48.769Z,25.58
2023-05-15T09:34:15.787Z,25.59
2023-05-15T09:36:45.071Z,25.60
2023-05-15T09:39:12.193Z,25.62
2023-05-15T09:41:41.931Z,25.62
2023-05-15T09:44:20.651Z,25.66
2023-05-15T09:46:48.678Z,25.70
2023-05-15T09:49:15.722Z,25.72
2023-05-15T09:51:44.502Z,25.74
2023-05-15T09:54:16.095Z,25.79
2023-05-15T09:56:47.337Z,25.83
2023-05-15T09:59:15.851Z,25.85
2023-05-15T10:01:46.177Z,25.89
2023-05-15T10:04:14.104Z,25.94
2023-05-15T10:06:43.363Z,25.95
2023-05-15T10:09:11.181Z,25.93
2023-05-15T10:11:39.351Z,25.92
2023-05-15T10:14:07.257Z,25.93
2023-05-15T10:16:36.068Z,25.99
2023-05-15T10:19:05.320Z,26.02
2023-05-15T10:21:33.875Z,26.05
2023-05-15T10:24:01.292Z,26.07
2023-05-15T10:26:39.687Z,26.07
2023-05-15T10:29:08.743Z,26.10
2023-05-15T10:31:36.727Z,26.17
2023-05-15T10:34:07.327Z,26.24
2023-05-15T10:36:35.010Z,26.27
2023-05-15T10:39:03.222Z,26.28
2023-05-15T10:41:30.919Z,26.31
2023-05-15T10:43:59.319Z,26.32
2023-05-15T10:46:27.107Z,26.29
2023-05-15T10:48:54.501Z,26.24
2023-05-15T10:51:27.588Z,26.21
2023-05-15T10:53:55.467Z,26.19
2023-05-15T10:56:37.805Z,26.17
2023-05-15T10:59:09.527Z,26.18
2023-05-15T11:01:37.928Z,26.17
2023-05-15T11:04:08.208Z,26.14
2023-05-15T11:06:35.844Z,26.14
2023-05-15T11:09:21.930Z,26.14
2023-05-15T11:11:52.052Z,26.11
2023-05-15T11:14:19.739Z,26.10
2023-05-15T11:16:52.784Z,26.08
2023-05-15T11:19:22.768Z,26.06
2023-05-15T11:22:06.216Z,26.05
2023-05-15T11:24:46.844Z,26.04
2023-05-15T11:27:16.799Z,26.03
2023-05-15T11:30:16.074Z,26.00
2023-05-15T11:32:52.755Z,25.99
2023-05-15T11:35:22.806Z,26.01
2023-05-15T11:37:51.464Z,26.05
2023-05-15T11:40:31.976Z,26.08
2023-05-15T11:43:08.780Z,26.12
2023-05-15T11:45:37.973Z,26.22
2023-05-15T11:48:08.736Z,26.30
2023-05-15T11:50:35.944Z,26.33
2023-05-15T11:53:06.555Z,26.33
2023-05-15T11:55:34.461Z,26.30
2023-05-15T11:58:01.828Z,26.30
2023-05-15T12:00:28.869Z,26.38
2023-05-15T12:02:56.362Z,26.48
2023-05-15T12:05:23.700Z,26.52
2023-05-15T12:07:50.658Z,26.51
2023-05-15T12:10:17.570Z,26.46
2023-05-15T12:12:46.064Z,26.39
2023-05-15T12:15:13.743Z,26.31
2023-05-15T12:17:41.158Z,26.23
2023-05-15T12:20:10.947Z,26.20
2023-05-15T12:22:42.638Z,26.18
2023-05-15T12:25:11.479Z,26.20
2023-05-15T12:27:39.359Z,26.21
2023-05-15T12:30:07.140Z,26.20
2023-05-15T12:32:35.158Z,26.26
2023-05-15T12:35:03.057Z,26.36
2023-05-15T12:37:35.977Z,26.45
2023-05-15T12:40:12.229Z,26.49
2023-05-15T12:42:42.849Z,26.49
2023-05-15T12:45:16.869Z,26.45
2023-05-15T12:47:44.874Z,26.37
2023-05-15T12:50:22.061Z,26.29
2023-05-15T12:52:53.449Z,26.25
2023-05-15T12:55:27.656Z,26.22
2023-05-15T12:57:58.063Z,26.19
2023-05-15T13:00:25.286Z,26.19
2023-05-15T13:02:53.591Z,26.18
2023-05-15T13:05:22.730Z,26.20
2023-05-15T13:07:49.559Z,26.22
2023-05-15T13:10:16.576Z,26.21
2023-05-15T13:12:45.477Z,26.19
2023-05-15T13:15:51.224Z,26.21
2023-05-15T13:18:18.639Z,26.23
2023-05-15T13:20:50.321Z,26.24
2023-05-15T13:23:21.307Z,26.30
2023-05-15T13:25:48.160Z,26.34
2023-05-15T13:28:15.474Z,26.32
2023-05-15T13:30:42.835Z,26.27
2023-05-15T13:33:10.882Z,26.20
2023-05-15T13:35:38.273Z,26.16
2023-05-15T13:38:05.118Z,26.14
2023-05-15T13:40:37.902Z,26.14
2023-05-15T13:43:07.003Z,26.14
2023-05-15T13:45:34.050Z,26.13
2023-05-15T13:48:01.094Z,26.11
2023-05-15T13:50:28.201Z,26.08
2023-05-15T13:52:56.035Z,26.10
2023-05-15T13:55:23.499Z,26.13
2023-05-15T13:57:51.654Z,26.14
2023-05-15T14:00:19.896Z,26.11
2023-05-15T14:02:46.928Z,26.10
2023-05-15T14:05:14.696Z,26.07
2023-05-15T14:07:41.668Z,26.02
2023-05-15T14:10:10.082Z,26.00
2023-05-15T14:12:37.745Z,26.02
2023-05-15T14:15:05.281Z,26.01
2023-05-15T14:17:32.264Z,26.00
2023-05-15T14:19:59.220Z,26.00
2023-05-15T14:22:26.093Z,25.97
2023-05-15T14:24:53.246Z,25.91
2023-05-15T14:27:20.456Z,25.85
2023-05-15T14:29:49.441Z,25.80
2023-05-15T14:32:17.013Z,25.77
2023-05-15T14:34:44.397Z,25.77
2023-05-15T14:37:11.502Z,25.81
2023-05-15T14:39:38.400Z,25.85
2023-05-15T14:42:06.483Z,25.87
2023-05-15T14:44:36.325Z,25.91
2023-05-15T14:47:12.923Z,25.94
2023-05-15T14:49:40.046Z,25.95
2023-05-15T14:52:09.301Z,25.98
2023-05-15T14:54:36.373Z,26.00
2023-05-15T14:57:03.969Z,26.00
2023-05-15T14:59:30.994Z,26.00
2023-05-15T15:01:58.204Z,25.97
2023-05-15T15:04:26.839Z,25.94
2023-05-15T15:06:57.041Z,25.91
2023-05-15T15:09:25.231Z,25.89
2023-05-15T15:11:52.880Z,25.90
2023-05-15T15:14:19.699Z,25.90
2023-05-15T15:16:46.856Z,25.90
2023-05-15T15:19:15.118Z,25.89
2023-05-15T15:21:43.544Z,25.87
2023-05-15T15:24:10.595Z,25.84
2023-05-15T15:26:37.667Z,25.77
2023-05-15T15:29:04.507Z,25.73
2023-05-15T15:31:31.877Z,25.71
2023-05-15T15:33:59.035Z,25.68
2023-05-15T15:36:25.993Z,25.65
2023-05-15T15:38:52.836Z,25.64
2023-05-15T15:41:21.761Z,25.63
2023-05-15T15:43:48.741Z,25.61
2023-05-15T15:46:15.772Z,25.58
2023-05-15T15:48:42.680Z,25.54
2023-05-15T15:51:09.520Z,25.50
2023-05-15T15:53:36.363Z,25.49
2023-05-15T15:56:03.258Z,25.50
2023-05-15T15:58:30.206Z,25.50
2023-05-15T16:00:57.908Z,25.48
2023-05-15T16:03:25.190Z,25.47
2023-05-15T16:05:52.060Z,25.44
2023-05-15T16:08:19.004Z,25.42
2023-05-15T16:10:45.937Z,25.40
2023-05-15T16:13:13.302Z,25.38
2023-05-15T16:15:40.775Z,25.34
2023-05-15T16:18:07.860Z,25.30
2023-05-15T16:20:35.409Z,25.27
2023-05-15T16:23:02.509Z,25.24
2023-05-15T16:25:29.432Z,25.22
2023-05-15T16:27:56.301Z,25.18
2023-05-15T16:30:28.237Z,25.14
2023-05-15T16:33:01.536Z,25.09
2023-05-15T16:35:28.567Z,25.03
2023-05-15T16:37:55.532Z,24.99
2023-05-15T16:40:22.419Z,24.94
2023-05-15T16:42:49.423Z,24.90
2023-05-15T16:45:16.588Z,24.87
2023-05-15T16:47:43.572Z,24.85
2023-05-15T16:50:10.879Z,24.81
2023-05-15T16:52:39.171Z,24.78
2023-05-15T16:55:06.929Z,24.74
2023-05-15T16:57:33.714Z,24.70
2023-05-15T17:00:00.629Z,24.67
2023-05-15T17:02:27.633Z,24.65
2023-05-15T17:04:55.352Z,24.61
2023-05-15T17:07:22.221Z,24.58
2023-05-15T17:09:49.353Z,24.55
2023-05-15T17:12:16.270Z,24.52
2023-05-15T17:14:43.476Z,24.50
2023-05-15T17:17:10.615Z,24.47
2023-05-15T17:19:37.512Z,24.45
2023-05-15T17:22:04.530Z,24.42
2023-05-15T17:24:42.622Z,24.39
2023-05-15T17:27:18.444Z,24.35
2023-05-15T17:29:46.133Z,24.32
2023-05-15T17:32:13.621Z,24.27
2023-05-15T17:34:40.771Z,24.22
2023-05-15T17:37:08.149Z,24.18
2023-05-15T17:39:35.715Z,24.12
2023-05-15T17:42:03.469Z,24.08
2023-05-15T17:44:31.295Z,24.03
2023-05-15T17:46:58.796Z,23.99
2023-05-15T17:49:26.520Z,23.94
2023-05-15T17:51:53.860Z,23.89
2023-05-15T17:54:20.900Z,23.86
2023-05-15T17:56:48.207Z,23.82
2023-05-15T17:59:15.765Z,23.78
2023-05-15T18:01:42.737Z,23.74
2023-05-15T18:04:10.097Z,23.70
2023-05-15T18:06:37.289Z,23.67
2023-05-15T18:09:04.951Z,23.63
2023-05-15T18:11:32.021Z,23.61
2023-05-15T18:13:58.894Z,23.58
2023-05-15T18:16:25.967Z,23.55
2023-05-15T18:18:53.128Z,23.52
2023-05-15T18:21:20.210Z,23.48
2023-05-15T18:23:47.369Z,23.43
2023-05-15T18:26:14.433Z,23.41
2023-05-15T18:28:41.302Z,23.39
2023-05-15T18:31:08.310Z,23.37
2023-05-15T18:33:35.378Z,23.33
2023-05-15T18:36:02.491Z,23.30
2023-05-15T18:38:30.204Z,23.26
2023-05-15T18:40:57.052Z,23.25
2023-05-15T18:43:23.856Z,23.20
2023-05-15T18:45:50.749Z,23.18
2023-05-15T18:48:17.622Z,23.16
2023-05-15T18:50:44.654Z,23.13
2023-05-15T18:53:11.477Z,23.09
2023-05-15T18:55:39.488Z,23.06
2023-05-15T18:58:06.428Z,23.01
2023-05-15T19:00:38.730Z,22.99
2023-05-15T19:03:07.038Z,22.95
2023-05-15T19:05:34.377Z,22.93
2023-05-15T19:08:02.123Z,22.90
2023-05-15T19:10:29.837Z,22.89
2023-05-15T19:12:57.555Z,22.86
2023-05-15T19:15:24.962Z,22.83
2023-05-15T19:17:52.344Z,22.81
2023-05-15T19:20:19.653Z,22.76
2023-05-15T19:22:46.682Z,22.73
2023-05-15T19:25:13.599Z,22.69
2023-05-15T19:27:40.604Z,22.65
2023-05-15T19:30:09.525Z,22.62
2023-05-15T19:32:37.048Z,22.59
2023-05-15T19:35:04.735Z,22.57
2023-05-15T19:37:31.669Z,22.54
2023-05-15T19:39:58.650Z,22.51
2023-05-15T19:42:26.484Z,22.49
2023-05-15T19:44:53.450Z,22.45
2023-05-15T19:47:20.799Z,22.39
2023-05-15T19:49:47.625Z,22.36
2023-05-15T19:52:15.914Z,22.36
2023-05-15T19:54:42.908Z,22.36
2023-05-15T19:57:09.846Z,22.34
2023-05-15T19:59:36.793Z,22.33
2023-05-15T20:02:05.344Z,22.31
2023-05-15T20:04:34.005Z,22.28
2023-05-15T20:07:00.909Z,22.22
2023-05-15T20:09:27.744Z,22.19
2023-05-15T20:11:54.818Z,22.16
2023-05-15T20:14:21.868Z,22.14
2023-05-15T20:16:49.068Z,22.11
2023-05-15T20:19:17.143Z,22.08
2023-05-15T20:21:44.203Z,22.04
2023-05-15T20:24:12.242Z,21.99
2023-05-15T20:26:39.184Z,21.93
2023-05-15T20:29:06.005Z,21.89
2023-05-15T20:31:33.785Z,21.88
2023-05-15T20:34:01.108Z,21.85
2023-05-15T20:36:28.438Z,21.79
2023-05-15T20:38:56.025Z,21.75
2023-05-15T20:41:23.285Z,21.73
2023-05-15T20:43:50.507Z,21.71
2023-05-15T20:46:17.585Z,21.69
2023-05-15T20:48:44.701Z,21.65
2023-05-15T20:51:11.615Z,21.62
2023-05-15T20:53:38.494Z,21.59
2023-05-15T20:56:05.549Z,21.55
2023-05-15T20:58:32.454Z,21.52
2023-05-15T21:01:01.348Z,21.47
2023-05-15T21:03:29.059Z,21.43
2023-05-15T21:05:57.469Z,21.42
2023-05-15T21:08:24.701Z,21.40
2023-05-15T21:10:53.417Z,21.38
2023-05-15T21:13:20.408Z,21.36
2023-05-15T21:15:47.276Z,21.33
2023-05-15T21:18:14.219Z,21.31
2023-05-15T21:20:41.911Z,21.27
2023-05-15T21:23:08.933Z,21.24
2023-05-15T21:25:37.005Z,21.21
2023-05-15T21:28:04.288Z,21.17
2023-05-15T21:30:31.766Z,21.10
2023-05-15T21:32:59.208Z,21.09
2023-05-15T21:35:29.130Z,21.07
2023-05-15T21:37:56.041Z,21.06
2023-05-15T21:40:22.903Z,21.05
2023-05-15T21:42:49.951Z,21.02
2023-05-15T21:45:17.593Z,20.98
2023-05-15T21:47:44.614Z,20.95
2023-05-15T21:50:11.803Z,20.94
2023-05-15T21:52:38.704Z,20.91
2023-05-15T21:55:06.337Z,20.87
2023-05-15T21:57:33.169Z,20.84
2023-05-15T22:00:00.219Z,20.81
2023-05-15T22:02:27.117Z,20.78
2023-05-15T22:04:53.977Z,20.76
2023-05-15T22:07:20.832Z,20.74
2023-05-15T22:09:47.663Z,20.74
2023-05-15T22:12:14.522Z,20.72
2023-05-15T22:14:54.564Z,20.66
2023-05-15T22:17:27.349Z,20.61
2023-05-15T22:19:54.360Z,20.58
2023-05-15T22:22:21.519Z,20.56
2023-05-15T22:24:48.694Z,20.53
2023-05-15T22:27:16.892Z,20.49
2023-05-15T22:29:43.844Z,20.41
2023-05-15T22:32:10.807Z,20.38
2023-05-15T22:34:37.721Z,20.33
2023-05-15T22:37:05.033Z,20.30
2023-05-15T22:39:33.233Z,20.27
2023-05-15T22:42:00.137Z,20.24
2023-05-15T22:44:28.622Z,20.20
2023-05-15T22:46:55.583Z,20.17
2023-05-15T22:49:25.888Z,20.14
2023-05-15T22:51:57.485Z,20.11
2023-05-15T22:54:24.375Z,20.09
2023-05-15T22:56:52.457Z,20.07
2023-05-15T22:59:19.808Z,20.08
2023-05-15T23:01:46.922Z,20.08
2023-05-15T23:04:14.241Z,20.05
2023-05-15T23:06:41.439Z,20.03
2023-05-15T23:09:08.683Z,20.03
2023-05-15T23:11:35.630Z,20.02
2023-05-15T23:14:03.101Z,20.00
2023-05-15T23:16:31.061Z,19.99
2023-05-15T23:18:58.260Z,19.98
2023-05-15T23:21:25.498Z,19.97
2023-05-15T23:23:52.383Z,19.95
2023-05-15T23:26:19.353Z,19.91
2023-05-15T23:28:46.305Z,19.87
2023-05-15T23:31:14.288Z,19.84
2023-05-15T23:33:41.450Z,19.82
2023-05-15T23:36:08.996Z,19.79
2023-05-15T23:38:35.970Z,19.74
2023-05-15T23:41:02.882Z,19.71
2023-05-15T23:43:30.045Z,19.68
2023-05-15T23:45:56.861Z,19.64
2023-05-15T23:48:23.840Z,19.62
2023-05-15T23:50:52.534Z,19.60
2023-05-15T23:53:19.588Z,19.57
2023-05-15T23:55:46.551Z,19.56
2023-05-15T23:58:13.406Z,19.55
